sensor_id;sensor_type;location;lat;lon;timestamp;P1;durP1;ratioP1;P2;durP2;ratioP2
58101;SDS011;52034;51.926;6.320;2023-02-28T00:00:53;14.60;;;12.77;;
58101;SDS011;52034;51.926;6.320;2023-02-28T00:01:53;14.67;;;11.73;;
58101;SDS011;52034;51.926;6.320;2023-02-28T00:02:54;13.97;;;12.03;;
58101;SDS011;52034;51.926;6.320;2023-02-28T00:03:54;16.77;;;11.90;;
58101;SDS011;52034;51.926;6.320;2023-02-28T00:04:54;13.53;;;11.83;;
58101;SDS011;52034;51.926;6.320;2023-02-28T00:06:02;13.70;;;11.70;;
58101;SDS011;52034;51.926;6.320;2023-02-28T00:07:03;13.25;;;11.10;;
58101;SDS011;52034;51.926;6.320;2023-02-28T00:08:03;15.33;;;11.27;;
58101;SDS011;52034;51.926;6.320;2023-02-28T00:09:04;14.88;;;11.63;;
58101;SDS011;52034;51.926;6.320;2023-02-28T00:10:05;12.83;;;11.50;;
58101;SDS011;52034;51.926;6.320;2023-02-28T00:11:08;13.13;;;11.70;;
58101;SDS011;52034;51.926;6.320;2023-02-28T00:12:10;14.35;;;11.18;;
58101;SDS011;52034;51.926;6.320;2023-02-28T00:13:11;13.30;;;11.00;;
58101;SDS011;52034;51.926;6.320;2023-02-28T00:14:11;12.37;;;11.03;;
58101;SDS011;52034;51.926;6.320;2023-02-28T00:15:11;18.63;;;12.03;;
58101;SDS011;52034;51.926;6.320;2023-02-28T00:16:13;13.03;;;11.70;;
58101;SDS011;52034;51.926;6.320;2023-02-28T00:17:21;14.68;;;11.88;;
58101;SDS011;52034;51.926;6.320;2023-02-28T00:18:21;14.90;;;11.73;;
58101;SDS011;52034;51.926;6.320;2023-02-28T00:19:22;13.60;;;12.17;;
58101;SDS011;52034;51.926;6.320;2023-02-28T00:20:22;12.73;;;11.43;;
58101;SDS011;52034;51.926;6.320;2023-02-28T00:21:23;14.70;;;13.02;;
58101;SDS011;52034;51.926;6.320;2023-02-28T00:22:24;14.23;;;12.68;;
58101;SDS011;52034;51.926;6.320;2023-02-28T00:23:24;14.43;;;12.50;;
58101;SDS011;52034;51.926;6.320;2023-02-28T00:24:25;14.85;;;12.15;;
58101;SDS011;52034;51.926;6.320;2023-02-28T00:25:25;14.27;;;12.87;;
58101;SDS011;52034;51.926;6.320;2023-02-28T00:26:26;13.80;;;12.23;;
58101;SDS011;52034;51.926;6.320;2023-02-28T00:27:26;18.47;;;12.70;;
58101;SDS011;52034;51.926;6.320;2023-02-28T00:28:26;16.47;;;12.83;;
58101;SDS011;52034;51.926;6.320;2023-02-28T00:29:27;18.27;;;13.23;;
58101;SDS011;52034;51.926;6.320;2023-02-28T00:30:27;16.63;;;13.20;;
58101;SDS011;52034;51.926;6.320;2023-02-28T00:31:27;19.97;;;12.77;;
58101;SDS011;52034;51.926;6.320;2023-02-28T00:32:28;16.97;;;12.57;;
58101;SDS011;52034;51.926;6.320;2023-02-28T00:33:28;14.87;;;11.73;;
58101;SDS011;52034;51.926;6.320;2023-02-28T00:34:29;15.03;;;12.47;;
58101;SDS011;52034;51.926;6.320;2023-02-28T00:35:29;14.03;;;11.97;;
58101;SDS011;52034;51.926;6.320;2023-02-28T00:36:29;16.87;;;12.80;;
58101;SDS011;52034;51.926;6.320;2023-02-28T00:37:30;14.10;;;11.93;;
58101;SDS011;52034;51.926;6.320;2023-02-28T00:38:30;18.93;;;12.63;;
58101;SDS011;52034;51.926;6.320;2023-02-28T00:39:31;18.33;;;12.53;;
58101;SDS011;52034;51.926;6.320;2023-02-28T00:40:31;17.43;;;12.70;;
58101;SDS011;52034;51.926;6.320;2023-02-28T00:41:31;15.30;;;12.37;;
58101;SDS011;52034;51.926;6.320;2023-02-28T00:42:32;13.87;;;12.23;;
58101;SDS011;52034;51.926;6.320;2023-02-28T00:43:34;17.38;;;12.63;;
58101;SDS011;52034;51.926;6.320;2023-02-28T00:44:35;16.35;;;12.70;;
58101;SDS011;52034;51.926;6.320;2023-02-28T00:45:35;15.50;;;12.37;;
58101;SDS011;52034;51.926;6.320;2023-02-28T00:46:38;14.55;;;12.77;;
58101;SDS011;52034;51.926;6.320;2023-02-28T00:47:38;13.77;;;12.33;;
58101;SDS011;52034;51.926;6.320;2023-02-28T00:48:38;14.40;;;12.90;;
58101;SDS011;52034;51.926;6.320;2023-02-28T00:49:38;14.00;;;12.30;;
58101;SDS011;52034;51.926;6.320;2023-02-28T00:50:39;14.60;;;12.20;;
58101;SDS011;52034;51.926;6.320;2023-02-28T00:51:39;13.90;;;12.13;;
58101;SDS011;52034;51.926;6.320;2023-02-28T00:52:39;17.23;;;12.70;;
58101;SDS011;52034;51.926;6.320;2023-02-28T00:53:40;15.63;;;12.30;;
58101;SDS011;52034;51.926;6.320;2023-02-28T00:54:40;14.47;;;12.17;;
58101;SDS011;52034;51.926;6.320;2023-02-28T00:55:41;14.32;;;12.35;;
58101;SDS011;52034;51.926;6.320;2023-02-28T00:56:41;13.80;;;12.17;;
58101;SDS011;52034;51.926;6.320;2023-02-28T00:57:42;16.27;;;12.93;;
58101;SDS011;52034;51.926;6.320;2023-02-28T00:58:43;13.98;;;12.35;;
58101;SDS011;52034;51.926;6.320;2023-02-28T00:59:43;17.17;;;13.23;;
58101;SDS011;52034;51.926;6.320;2023-02-28T01:00:44;15.07;;;12.57;;
58101;SDS011;52034;51.926;6.320;2023-02-28T01:01:48;15.45;;;12.27;;
58101;SDS011;52034;51.926;6.320;2023-02-28T01:02:49;16.47;;;12.50;;
58101;SDS011;52034;51.926;6.320;2023-02-28T01:03:49;15.70;;;12.93;;
58101;SDS011;52034;51.926;6.320;2023-02-28T01:04:49;13.70;;;12.30;;
58101;SDS011;52034;51.926;6.320;2023-02-28T01:05:50;14.90;;;12.90;;
58101;SDS011;52034;51.926;6.320;2023-02-28T01:06:51;15.05;;;13.52;;
58101;SDS011;52034;51.926;6.320;2023-02-28T01:07:51;14.93;;;13.20;;
58101;SDS011;52034;51.926;6.320;2023-02-28T01:08:51;14.40;;;13.00;;
58101;SDS011;52034;51.926;6.320;2023-02-28T01:09:52;17.38;;;12.95;;
58101;SDS011;52034;51.926;6.320;2023-02-28T01:10:52;16.53;;;13.13;;
58101;SDS011;52034;51.926;6.320;2023-02-28T01:11:53;15.60;;;13.03;;
58101;SDS011;52034;51.926;6.320;2023-02-28T01:12:53;18.80;;;13.27;;
58101;SDS011;52034;51.926;6.320;2023-02-28T01:13:54;14.60;;;13.07;;
58101;SDS011;52034;51.926;6.320;2023-02-28T01:14:54;17.93;;;13.03;;
58101;SDS011;52034;51.926;6.320;2023-02-28T01:15:55;13.93;;;12.52;;
58101;SDS011;52034;51.926;6.320;2023-02-28T01:16:56;14.80;;;13.20;;
58101;SDS011;52034;51.926;6.320;2023-02-28T01:17:59;14.48;;;12.45;;
58101;SDS011;52034;51.926;6.320;2023-02-28T01:18:59;17.93;;;13.00;;
58101;SDS011;52034;51.926;6.320;2023-02-28T01:19:59;14.13;;;12.33;;
58101;SDS011;52034;51.926;6.320;2023-02-28T01:21:07;15.10;;;12.43;;
58101;SDS011;52034;51.926;6.320;2023-02-28T01:22:09;15.32;;;12.95;;
58101;SDS011;52034;51.926;6.320;2023-02-28T01:23:10;14.90;;;12.53;;
58101;SDS011;52034;51.926;6.320;2023-02-28T01:24:10;15.17;;;13.00;;
58101;SDS011;52034;51.926;6.320;2023-02-28T01:25:10;15.03;;;12.77;;
58101;SDS011;52034;51.926;6.320;2023-02-28T01:26:15;16.87;;;13.83;;
58101;SDS011;52034;51.926;6.320;2023-02-28T01:27:17;18.35;;;13.00;;
58101;SDS011;52034;51.926;6.320;2023-02-28T01:28:18;15.00;;;13.13;;
58101;SDS011;52034;51.926;6.320;2023-02-28T01:29:18;15.73;;;13.50;;
58101;SDS011;52034;51.926;6.320;2023-02-28T01:30:19;15.93;;;13.20;;
58101;SDS011;52034;51.926;6.320;2023-02-28T01:31:21;16.73;;;13.15;;
58101;SDS011;52034;51.926;6.320;2023-02-28T01:32:22;16.02;;;13.35;;
58101;SDS011;52034;51.926;6.320;2023-02-28T01:33:24;15.07;;;13.50;;
58101;SDS011;52034;51.926;6.320;2023-02-28T01:34:24;17.07;;;14.00;;
58101;SDS011;52034;51.926;6.320;2023-02-28T01:35:25;16.53;;;13.77;;
58101;SDS011;52034;51.926;6.320;2023-02-28T01:36:25;19.87;;;14.10;;
58101;SDS011;52034;51.926;6.320;2023-02-28T01:37:25;18.33;;;13.70;;
58101;SDS011;52034;51.926;6.320;2023-02-28T01:38:26;17.45;;;13.77;;
58101;SDS011;52034;51.926;6.320;2023-02-28T01:39:28;15.50;;;13.85;;
58101;SDS011;52034;51.926;6.320;2023-02-28T01:40:28;18.70;;;13.77;;
58101;SDS011;52034;51.926;6.320;2023-02-28T01:41:30;17.70;;;13.65;;
58101;SDS011;52034;51.926;6.320;2023-02-28T01:42:33;16.30;;;12.63;;
58101;SDS011;52034;51.926;6.320;2023-02-28T01:45:06;14.98;;;13.30;;
58101;SDS011;52034;51.926;6.320;2023-02-28T01:46:18;14.15;;;12.65;;
58101;SDS011;52034;51.926;6.320;2023-02-28T01:47:20;16.63;;;13.68;;
58101;SDS011;52034;51.926;6.320;2023-02-28T01:49:27;16.38;;;13.65;;
58101;SDS011;52034;51.926;6.320;2023-02-28T01:50:28;17.70;;;14.47;;
58101;SDS011;52034;51.926;6.320;2023-02-28T01:51:42;18.80;;;13.85;;
58101;SDS011;52034;51.926;6.320;2023-02-28T01:52:50;17.25;;;13.77;;
58101;SDS011;52034;51.926;6.320;2023-02-28T01:53:53;18.38;;;14.13;;
58101;SDS011;52034;51.926;6.320;2023-02-28T01:55:04;17.42;;;14.32;;
58101;SDS011;52034;51.926;6.320;2023-02-28T01:56:06;17.65;;;14.10;;
58101;SDS011;52034;51.926;6.320;2023-02-28T01:57:11;15.77;;;13.02;;
58101;SDS011;52034;51.926;6.320;2023-02-28T01:58:15;17.17;;;13.30;;
58101;SDS011;52034;51.926;6.320;2023-02-28T01:59:19;20.13;;;13.87;;
58101;SDS011;52034;51.926;6.320;2023-02-28T02:00:23;17.25;;;13.68;;
58101;SDS011;52034;51.926;6.320;2023-02-28T02:01:27;18.13;;;13.85;;
58101;SDS011;52034;51.926;6.320;2023-02-28T02:02:28;15.07;;;13.55;;
58101;SDS011;52034;51.926;6.320;2023-02-28T02:03:29;15.10;;;13.50;;
58101;SDS011;52034;51.926;6.320;2023-02-28T02:05:34;16.00;;;13.48;;
58101;SDS011;52034;51.926;6.320;2023-02-28T02:06:40;18.88;;;14.10;;
58101;SDS011;52034;51.926;6.320;2023-02-28T02:07:45;15.80;;;13.32;;
58101;SDS011;52034;51.926;6.320;2023-02-28T02:08:47;16.55;;;13.93;;
58101;SDS011;52034;51.926;6.320;2023-02-28T02:09:47;15.80;;;13.93;;
58101;SDS011;52034;51.926;6.320;2023-02-28T02:10:48;16.50;;;14.03;;
58101;SDS011;52034;51.926;6.320;2023-02-28T02:11:54;16.95;;;14.07;;
58101;SDS011;52034;51.926;6.320;2023-02-28T02:14:40;15.35;;;13.07;;
58101;SDS011;52034;51.926;6.320;2023-02-28T02:17:33;15.20;;;13.63;;
58101;SDS011;52034;51.926;6.320;2023-02-28T02:18:48;16.25;;;13.77;;
58101;SDS011;52034;51.926;6.320;2023-02-28T02:22:58;15.52;;;13.70;;
58101;SDS011;52034;51.926;6.320;2023-02-28T02:26:38;16.88;;;13.60;;
58101;SDS011;52034;51.926;6.320;2023-02-28T02:29:42;15.50;;;12.85;;
58101;SDS011;52034;51.926;6.320;2023-02-28T02:30:36;16.63;;;13.10;;
58101;SDS011;52034;51.926;6.320;2023-02-28T02:33:38;15.60;;;13.02;;
58101;SDS011;52034;51.926;6.320;2023-02-28T02:34:48;18.35;;;14.07;;
58101;SDS011;52034;51.926;6.320;2023-02-28T02:40:57;15.77;;;13.50;;
58101;SDS011;52034;51.926;6.320;2023-02-28T02:42:08;16.45;;;13.20;;
58101;SDS011;52034;51.926;6.320;2023-02-28T02:43:18;15.75;;;13.02;;
58101;SDS011;52034;51.926;6.320;2023-02-28T02:44:24;15.98;;;12.85;;
58101;SDS011;52034;51.926;6.320;2023-02-28T02:45:37;14.00;;;12.52;;
58101;SDS011;52034;51.926;6.320;2023-02-28T02:46:43;15.00;;;12.45;;
58101;SDS011;52034;51.926;6.320;2023-02-28T02:47:45;14.07;;;12.57;;
58101;SDS011;52034;51.926;6.320;2023-02-28T02:48:46;15.50;;;12.65;;
58101;SDS011;52034;51.926;6.320;2023-02-28T02:49:50;15.20;;;12.45;;
58101;SDS011;52034;51.926;6.320;2023-02-28T02:50:57;15.55;;;12.52;;
58101;SDS011;52034;51.926;6.320;2023-02-28T02:52:05;12.90;;;11.55;;
58101;SDS011;52034;51.926;6.320;2023-02-28T02:53:07;17.27;;;12.43;;
58101;SDS011;52034;51.926;6.320;2023-02-28T02:54:12;15.40;;;11.95;;
58101;SDS011;52034;51.926;6.320;2023-02-28T02:55:17;15.60;;;12.73;;
58101;SDS011;52034;51.926;6.320;2023-02-28T02:56:21;14.57;;;12.38;;
58101;SDS011;52034;51.926;6.320;2023-02-28T02:57:27;14.52;;;12.10;;
58101;SDS011;52034;51.926;6.320;2023-02-28T02:58:33;13.57;;;11.57;;
58101;SDS011;52034;51.926;6.320;2023-02-28T02:59:43;13.52;;;11.70;;
58101;SDS011;52034;51.926;6.320;2023-02-28T03:00:48;14.25;;;11.88;;
58101;SDS011;52034;51.926;6.320;2023-02-28T03:01:53;13.48;;;11.68;;
58101;SDS011;52034;51.926;6.320;2023-02-28T03:02:57;14.93;;;12.10;;
58101;SDS011;52034;51.926;6.320;2023-02-28T03:03:59;14.13;;;11.90;;
58101;SDS011;52034;51.926;6.320;2023-02-28T03:05:04;16.45;;;12.13;;
58101;SDS011;52034;51.926;6.320;2023-02-28T03:06:08;12.73;;;11.18;;
58101;SDS011;52034;51.926;6.320;2023-02-28T03:07:10;15.77;;;11.73;;
58101;SDS011;52034;51.926;6.320;2023-02-28T03:08:11;17.10;;;12.00;;
58101;SDS011;52034;51.926;6.320;2023-02-28T03:09:11;14.50;;;11.50;;
58101;SDS011;52034;51.926;6.320;2023-02-28T03:10:26;13.85;;;11.50;;
58101;SDS011;52034;51.926;6.320;2023-02-28T03:11:27;12.75;;;11.18;;
58101;SDS011;52034;51.926;6.320;2023-02-28T03:17:53;12.23;;;10.90;;
58101;SDS011;52034;51.926;6.320;2023-02-28T03:19:19;12.45;;;11.25;;
58101;SDS011;52034;51.926;6.320;2023-02-28T03:20:41;12.82;;;11.57;;
58101;SDS011;52034;51.926;6.320;2023-02-28T03:22:00;16.95;;;12.27;;
58101;SDS011;52034;51.926;6.320;2023-02-28T03:26:29;14.88;;;12.02;;
58101;SDS011;52034;51.926;6.320;2023-02-28T03:27:36;13.20;;;11.82;;
58101;SDS011;52034;51.926;6.320;2023-02-28T03:28:58;13.43;;;11.02;;
58101;SDS011;52034;51.926;6.320;2023-02-28T03:30:22;14.55;;;11.30;;
58101;SDS011;52034;51.926;6.320;2023-02-28T03:32:39;11.70;;;10.38;;
58101;SDS011;52034;51.926;6.320;2023-02-28T03:34:22;14.05;;;10.95;;
58101;SDS011;52034;51.926;6.320;2023-02-28T03:35:30;13.70;;;11.35;;
58101;SDS011;52034;51.926;6.320;2023-02-28T03:36:45;13.65;;;10.55;;
58101;SDS011;52034;51.926;6.320;2023-02-28T03:37:50;13.38;;;11.15;;
58101;SDS011;52034;51.926;6.320;2023-02-28T03:38:59;12.35;;;10.57;;
58101;SDS011;52034;51.926;6.320;2023-02-28T03:40:09;12.73;;;10.88;;
58101;SDS011;52034;51.926;6.320;2023-02-28T03:41:15;11.00;;;9.90;;
58101;SDS011;52034;51.926;6.320;2023-02-28T03:42:20;13.02;;;10.10;;
58101;SDS011;52034;51.926;6.320;2023-02-28T03:43:28;10.63;;;9.60;;
58101;SDS011;52034;51.926;6.320;2023-02-28T03:45:36;10.80;;;9.70;;
58101;SDS011;52034;51.926;6.320;2023-02-28T03:46:39;10.40;;;9.30;;
58101;SDS011;52034;51.926;6.320;2023-02-28T03:48:07;10.80;;;9.48;;
58101;SDS011;52034;51.926;6.320;2023-02-28T03:49:17;12.18;;;9.63;;
58101;SDS011;52034;51.926;6.320;2023-02-28T03:50:27;11.20;;;9.75;;
58101;SDS011;52034;51.926;6.320;2023-02-28T03:52:36;11.88;;;10.00;;
58101;SDS011;52034;51.926;6.320;2023-02-28T03:53:44;13.82;;;10.48;;
58101;SDS011;52034;51.926;6.320;2023-02-28T03:54:48;10.88;;;9.77;;
58101;SDS011;52034;51.926;6.320;2023-02-28T03:55:54;12.07;;;9.80;;
58101;SDS011;52034;51.926;6.320;2023-02-28T03:58:37;10.95;;;9.93;;
58101;SDS011;52034;51.926;6.320;2023-02-28T03:59:59;12.25;;;10.57;;
58101;SDS011;52034;51.926;6.320;2023-02-28T04:01:14;11.57;;;10.10;;
58101;SDS011;52034;51.926;6.320;2023-02-28T04:02:18;12.25;;;10.27;;
58101;SDS011;52034;51.926;6.320;2023-02-28T04:03:19;12.53;;;10.50;;
58101;SDS011;52034;51.926;6.320;2023-02-28T04:04:19;11.57;;;10.40;;
58101;SDS011;52034;51.926;6.320;2023-02-28T04:05:20;15.03;;;11.10;;
58101;SDS011;52034;51.926;6.320;2023-02-28T04:07:23;12.75;;;11.45;;
58101;SDS011;52034;51.926;6.320;2023-02-28T04:08:23;12.03;;;10.50;;
58101;SDS011;52034;51.926;6.320;2023-02-28T04:09:23;13.93;;;11.67;;
58101;SDS011;52034;51.926;6.320;2023-02-28T04:10:24;12.77;;;10.90;;
58101;SDS011;52034;51.926;6.320;2023-02-28T04:12:55;13.63;;;11.82;;
58101;SDS011;52034;51.926;6.320;2023-02-28T04:13:55;13.77;;;11.20;;
58101;SDS011;52034;51.926;6.320;2023-02-28T04:14:56;13.30;;;11.73;;
58101;SDS011;52034;51.926;6.320;2023-02-28T04:15:56;13.33;;;12.07;;
58101;SDS011;52034;51.926;6.320;2023-02-28T04:16:56;12.80;;;11.50;;
58101;SDS011;52034;51.926;6.320;2023-02-28T04:17:57;12.70;;;11.40;;
58101;SDS011;52034;51.926;6.320;2023-02-28T04:18:57;12.40;;;11.10;;
58101;SDS011;52034;51.926;6.320;2023-02-28T04:20:03;12.55;;;11.27;;
58101;SDS011;52034;51.926;6.320;2023-02-28T04:21:09;15.50;;;11.90;;
58101;SDS011;52034;51.926;6.320;2023-02-28T04:22:10;14.82;;;11.88;;
58101;SDS011;52034;51.926;6.320;2023-02-28T04:23:11;14.60;;;11.93;;
58101;SDS011;52034;51.926;6.320;2023-02-28T04:24:13;13.67;;;11.83;;
58101;SDS011;52034;51.926;6.320;2023-02-28T04:25:15;13.73;;;11.57;;
58101;SDS011;52034;51.926;6.320;2023-02-28T04:26:15;14.53;;;12.27;;
58101;SDS011;52034;51.926;6.320;2023-02-28T04:27:15;13.27;;;11.57;;
58101;SDS011;52034;51.926;6.320;2023-02-28T04:28:16;14.80;;;11.93;;
58101;SDS011;52034;51.926;6.320;2023-02-28T04:29:21;13.50;;;12.07;;
58101;SDS011;52034;51.926;6.320;2023-02-28T04:30:26;12.77;;;11.40;;
58101;SDS011;52034;51.926;6.320;2023-02-28T04:31:26;15.03;;;11.80;;
58101;SDS011;52034;51.926;6.320;2023-02-28T04:32:26;15.80;;;12.47;;
58101;SDS011;52034;51.926;6.320;2023-02-28T04:33:27;13.73;;;11.60;;
58101;SDS011;52034;51.926;6.320;2023-02-28T04:34:29;16.65;;;12.55;;
58101;SDS011;52034;51.926;6.320;2023-02-28T04:35:31;13.88;;;12.27;;
58101;SDS011;52034;51.926;6.320;2023-02-28T04:36:31;13.77;;;11.80;;
58101;SDS011;52034;51.926;6.320;2023-02-28T04:37:32;13.87;;;11.60;;
58101;SDS011;52034;51.926;6.320;2023-02-28T04:38:35;14.30;;;11.50;;
58101;SDS011;52034;51.926;6.320;2023-02-28T04:39:37;14.65;;;11.90;;
58101;SDS011;52034;51.926;6.320;2023-02-28T04:40:37;14.95;;;11.85;;
58101;SDS011;52034;51.926;6.320;2023-02-28T04:41:38;13.27;;;11.97;;
58101;SDS011;52034;51.926;6.320;2023-02-28T04:42:38;14.40;;;11.73;;
58101;SDS011;52034;51.926;6.320;2023-02-28T04:43:38;12.47;;;11.23;;
58101;SDS011;52034;51.926;6.320;2023-02-28T04:44:39;13.70;;;11.93;;
58101;SDS011;52034;51.926;6.320;2023-02-28T04:45:39;13.53;;;11.37;;
58101;SDS011;52034;51.926;6.320;2023-02-28T04:46:39;12.83;;;11.50;;
58101;SDS011;52034;51.926;6.320;2023-02-28T04:47:40;12.87;;;11.50;;
58101;SDS011;52034;51.926;6.320;2023-02-28T04:48:40;13.83;;;11.40;;
58101;SDS011;52034;51.926;6.320;2023-02-28T04:49:41;12.60;;;11.10;;
58101;SDS011;52034;51.926;6.320;2023-02-28T04:50:41;13.17;;;11.67;;
58101;SDS011;52034;51.926;6.320;2023-02-28T04:51:41;14.53;;;12.43;;
58101;SDS011;52034;51.926;6.320;2023-02-28T04:52:42;14.40;;;11.90;;
58101;SDS011;52034;51.926;6.320;2023-02-28T04:53:42;16.37;;;11.50;;
58101;SDS011;52034;51.926;6.320;2023-02-28T04:54:43;13.80;;;10.88;;
58101;SDS011;52034;51.926;6.320;2023-02-28T04:55:43;12.10;;;10.90;;
58101;SDS011;52034;51.926;6.320;2023-02-28T04:56:44;12.87;;;11.30;;
58101;SDS011;52034;51.926;6.320;2023-02-28T04:57:44;13.13;;;11.83;;
58101;SDS011;52034;51.926;6.320;2023-02-28T04:58:45;14.33;;;11.90;;
58101;SDS011;52034;51.926;6.320;2023-02-28T04:59:46;13.75;;;11.55;;
58101;SDS011;52034;51.926;6.320;2023-02-28T05:00:46;14.50;;;11.37;;
58101;SDS011;52034;51.926;6.320;2023-02-28T05:01:47;15.27;;;12.10;;
58101;SDS011;52034;51.926;6.320;2023-02-28T05:02:48;12.48;;;11.27;;
58101;SDS011;52034;51.926;6.320;2023-02-28T05:03:49;15.33;;;12.00;;
58101;SDS011;52034;51.926;6.320;2023-02-28T05:04:49;12.75;;;11.48;;
58101;SDS011;52034;51.926;6.320;2023-02-28T05:05:50;15.47;;;11.83;;
58101;SDS011;52034;51.926;6.320;2023-02-28T05:06:50;15.23;;;11.60;;
58101;SDS011;52034;51.926;6.320;2023-02-28T05:07:50;13.47;;;11.50;;
58101;SDS011;52034;51.926;6.320;2023-02-28T05:08:51;17.43;;;11.83;;
58101;SDS011;52034;51.926;6.320;2023-02-28T05:09:52;13.90;;;12.07;;
58101;SDS011;52034;51.926;6.320;2023-02-28T05:10:53;15.23;;;12.47;;
58101;SDS011;52034;51.926;6.320;2023-02-28T05:11:53;15.87;;;12.67;;
58101;SDS011;52034;51.926;6.320;2023-02-28T05:12:53;16.17;;;12.83;;
58101;SDS011;52034;51.926;6.320;2023-02-28T05:13:54;15.37;;;12.53;;
58101;SDS011;52034;51.926;6.320;2023-02-28T05:14:54;14.03;;;12.53;;
58101;SDS011;52034;51.926;6.320;2023-02-28T05:15:55;14.80;;;12.37;;
58101;SDS011;52034;51.926;6.320;2023-02-28T05:16:55;15.43;;;13.52;;
58101;SDS011;52034;51.926;6.320;2023-02-28T05:17:56;15.70;;;12.90;;
58101;SDS011;52034;51.926;6.320;2023-02-28T05:18:56;18.87;;;14.37;;
58101;SDS011;52034;51.926;6.320;2023-02-28T05:19:56;17.90;;;13.33;;
58101;SDS011;52034;51.926;6.320;2023-02-28T05:20:57;15.80;;;12.73;;
58101;SDS011;52034;51.926;6.320;2023-02-28T05:21:57;14.60;;;13.03;;
58101;SDS011;52034;51.926;6.320;2023-02-28T05:22:58;15.07;;;13.27;;
58101;SDS011;52034;51.926;6.320;2023-02-28T05:24:01;14.82;;;12.60;;
58101;SDS011;52034;51.926;6.320;2023-02-28T05:25:04;13.75;;;12.32;;
58101;SDS011;52034;51.926;6.320;2023-02-28T05:26:05;16.23;;;12.57;;
58101;SDS011;52034;51.926;6.320;2023-02-28T05:27:05;16.23;;;12.63;;
58101;SDS011;52034;51.926;6.320;2023-02-28T05:28:06;13.17;;;11.83;;
58101;SDS011;52034;51.926;6.320;2023-02-28T05:29:06;13.63;;;11.35;;
58101;SDS011;52034;51.926;6.320;2023-02-28T05:30:07;12.10;;;10.80;;
58101;SDS011;52034;51.926;6.320;2023-02-28T05:31:10;13.60;;;11.82;;
58101;SDS011;52034;51.926;6.320;2023-02-28T05:32:11;14.07;;;11.87;;
58101;SDS011;52034;51.926;6.320;2023-02-28T05:33:12;12.40;;;11.13;;
58101;SDS011;52034;51.926;6.320;2023-02-28T05:34:13;13.32;;;11.63;;
58101;SDS011;52034;51.926;6.320;2023-02-28T05:35:15;12.63;;;10.73;;
58101;SDS011;52034;51.926;6.320;2023-02-28T05:36:15;13.07;;;11.80;;
58101;SDS011;52034;51.926;6.320;2023-02-28T05:37:16;17.63;;;11.73;;
58101;SDS011;52034;51.926;6.320;2023-02-28T05:38:16;14.40;;;11.83;;
58101;SDS011;52034;51.926;6.320;2023-02-28T05:39:17;14.63;;;11.80;;
58101;SDS011;52034;51.926;6.320;2023-02-28T05:40:18;14.03;;;11.83;;
58101;SDS011;52034;51.926;6.320;2023-02-28T05:41:20;15.20;;;11.98;;
58101;SDS011;52034;51.926;6.320;2023-02-28T05:42:20;14.20;;;12.23;;
58101;SDS011;52034;51.926;6.320;2023-02-28T05:43:20;13.47;;;12.03;;
58101;SDS011;52034;51.926;6.320;2023-02-28T05:44:21;16.87;;;12.50;;
58101;SDS011;52034;51.926;6.320;2023-02-28T05:45:21;13.93;;;11.90;;
58101;SDS011;52034;51.926;6.320;2023-02-28T05:46:21;14.73;;;11.80;;
58101;SDS011;52034;51.926;6.320;2023-02-28T05:47:22;13.57;;;11.67;;
58101;SDS011;52034;51.926;6.320;2023-02-28T05:48:22;13.90;;;12.50;;
58101;SDS011;52034;51.926;6.320;2023-02-28T05:49:22;14.27;;;11.90;;
58101;SDS011;52034;51.926;6.320;2023-02-28T05:50:23;11.93;;;10.73;;
58101;SDS011;52034;51.926;6.320;2023-02-28T05:51:23;12.40;;;10.67;;
58101;SDS011;52034;51.926;6.320;2023-02-28T05:52:23;15.50;;;11.57;;
58101;SDS011;52034;51.926;6.320;2023-02-28T05:53:24;16.00;;;11.57;;
58101;SDS011;52034;51.926;6.320;2023-02-28T05:54:24;12.33;;;10.90;;
58101;SDS011;52034;51.926;6.320;2023-02-28T05:55:24;13.50;;;11.47;;
58101;SDS011;52034;51.926;6.320;2023-02-28T05:56:25;15.60;;;12.50;;
58101;SDS011;52034;51.926;6.320;2023-02-28T05:57:25;16.97;;;11.97;;
58101;SDS011;52034;51.926;6.320;2023-02-28T05:58:25;12.83;;;11.13;;
58101;SDS011;52034;51.926;6.320;2023-02-28T05:59:30;13.05;;;11.65;;
58101;SDS011;52034;51.926;6.320;2023-02-28T06:00:30;12.30;;;11.00;;
58101;SDS011;52034;51.926;6.320;2023-02-28T06:01:35;12.77;;;11.30;;
58101;SDS011;52034;51.926;6.320;2023-02-28T06:02:38;13.73;;;11.63;;
58101;SDS011;52034;51.926;6.320;2023-02-28T06:03:39;14.55;;;11.50;;
58101;SDS011;52034;51.926;6.320;2023-02-28T06:04:40;12.00;;;10.80;;
58101;SDS011;52034;51.926;6.320;2023-02-28T06:05:41;12.60;;;11.02;;
58101;SDS011;52034;51.926;6.320;2023-02-28T06:06:41;13.90;;;11.97;;
58101;SDS011;52034;51.926;6.320;2023-02-28T06:07:43;12.70;;;11.07;;
58101;SDS011;52034;51.926;6.320;2023-02-28T06:08:43;13.73;;;11.13;;
58101;SDS011;52034;51.926;6.320;2023-02-28T06:09:44;13.93;;;11.07;;
58101;SDS011;52034;51.926;6.320;2023-02-28T06:10:44;12.67;;;11.27;;
58101;SDS011;52034;51.926;6.320;2023-02-28T06:11:45;12.00;;;10.80;;
58101;SDS011;52034;51.926;6.320;2023-02-28T06:12:45;13.90;;;11.57;;
58101;SDS011;52034;51.926;6.320;2023-02-28T06:13:46;12.37;;;10.93;;
58101;SDS011;52034;51.926;6.320;2023-02-28T06:14:46;12.20;;;10.97;;
58101;SDS011;52034;51.926;6.320;2023-02-28T06:15:47;14.47;;;11.67;;
58101;SDS011;52034;51.926;6.320;2023-02-28T06:16:47;14.97;;;11.83;;
58101;SDS011;52034;51.926;6.320;2023-02-28T06:17:47;12.23;;;10.93;;
58101;SDS011;52034;51.926;6.320;2023-02-28T06:18:47;12.50;;;11.23;;
58101;SDS011;52034;51.926;6.320;2023-02-28T06:19:48;12.70;;;11.37;;
58101;SDS011;52034;51.926;6.320;2023-02-28T06:20:54;12.33;;;10.97;;
58101;SDS011;52034;51.926;6.320;2023-02-28T06:21:55;12.77;;;11.10;;
58101;SDS011;52034;51.926;6.320;2023-02-28T06:22:57;12.43;;;11.13;;
58101;SDS011;52034;51.926;6.320;2023-02-28T06:24:00;13.90;;;11.10;;
58101;SDS011;52034;51.926;6.320;2023-02-28T06:25:01;14.00;;;11.83;;
58101;SDS011;52034;51.926;6.320;2023-02-28T06:26:02;13.00;;;10.73;;
58101;SDS011;52034;51.926;6.320;2023-02-28T06:27:02;13.33;;;11.10;;
58101;SDS011;52034;51.926;6.320;2023-02-28T06:28:05;12.25;;;10.95;;
58101;SDS011;52034;51.926;6.320;2023-02-28T06:29:06;12.52;;;11.15;;
58101;SDS011;52034;51.926;6.320;2023-02-28T06:30:07;14.32;;;12.25;;
58101;SDS011;52034;51.926;6.320;2023-02-28T06:31:09;12.10;;;10.93;;
58101;SDS011;52034;51.926;6.320;2023-02-28T06:32:10;14.55;;;11.57;;
58101;SDS011;52034;51.926;6.320;2023-02-28T06:33:10;13.10;;;11.40;;
58101;SDS011;52034;51.926;6.320;2023-02-28T06:34:11;12.73;;;11.37;;
58101;SDS011;52034;51.926;6.320;2023-02-28T06:35:11;13.27;;;11.73;;
58101;SDS011;52034;51.926;6.320;2023-02-28T06:36:14;12.52;;;11.23;;
58101;SDS011;52034;51.926;6.320;2023-02-28T06:38:15;15.18;;;11.13;;
58101;SDS011;52034;51.926;6.320;2023-02-28T06:39:16;12.23;;;10.93;;
58101;SDS011;52034;51.926;6.320;2023-02-28T06:40:16;12.33;;;11.10;;
58101;SDS011;52034;51.926;6.320;2023-02-28T06:41:17;12.87;;;11.57;;
58101;SDS011;52034;51.926;6.320;2023-02-28T06:42:17;11.40;;;10.30;;
58101;SDS011;52034;51.926;6.320;2023-02-28T06:43:18;16.67;;;11.47;;
58101;SDS011;52034;51.926;6.320;2023-02-28T06:44:18;12.67;;;11.30;;
58101;SDS011;52034;51.926;6.320;2023-02-28T06:45:18;13.63;;;11.53;;